Joplin Regional Airport
KJLN : now visible

Airfield :











YOU CAN JOIN US ON...

 
LOGIN :

Register | Disclaimer

   EN    FR    IT 

 









Legend :    VFR   Marginal VFR   IFR   Intensive IFR   Very Intensive IFR
Visi :
Ceiling :
>= 8 km
>= 3000ft
5 to 8 km
1000 to 3000 ft
1500m to 5 km
500 to 1000 ft
800 to 1500m
200 to 500 ft
< 800m
< 200 ft
Symbols :   Thunderstorms  Fog  Heavy snow  Heavy precipitations  Wind > 20 kt







- Airport Elevation : 981 ft
- IATA code : JLN


KJLN - Joplin Regional

CURRENT METAR :
  • 261453Z 35007KT 3SM TSRA BR BKN006 BKN036 OVC060 18/18 A3017 RMK AO2 LTG DSNT ALQDS RAB09 TSB34 SLP209 TS OHD MOV E P0018 60018 T01830178 53044

EXPIRED METARs :
  • 261434Z 32012G17KT 2SM TSRA BR BKN009 OVC017 19/18 A3017 RMK AO2 LTG DSNT ALQDS RAB09 TSB34 CIG 005V013 TS OHD MOV E P0007 T01890183
  • 261417Z 32012KT 6SM VCTS RA BR BKN011 OVC036 19/18 A3016 RMK AO2 LTG DSNT ALQDS RAB09 CIG 006V013 PRESRR TS W MOV E P0003 T01890178
  • 261353Z VRB04KT 10SM FEW011 BKN043 OVC065 19/18 A3011 RMK AO2 LTG DSNT NW-E SLP189 T01940183
  • 261340Z VRB04KT 10SM BKN047 BKN055 OVC065 19/18 A3010 RMK AO2 LTG DSNT NW-E T01940183
  • 261253Z COR 25004KT 10SM VCTS SCT055 OVC070 19/18 A3007 RMK AO2 LTG DSNT NW TS W MOV E SLP173 T01890178

TAF KJLN
Valid from the 26 at 15:00 until the 27 at 12:00 UTC


261502Z 2615/2712 19010KT P6SM VCTS BKN050CB OVC080
TEMPO 2615/2617 3SM TSRA BKN006 OVC035CB
FM261700 22014G20KT P6SM FEW045 BKN080
FM262000 19013G19KT P6SM FEW045 SCT120
FM270200 17008KT P6SM BKN250
KZKC FIR / North America



MET'MAP, your aeronautical weather chart ! - Copyright ORBIFLY December 2007 - Disclaimer

ORBIFLY MET'MAP TEAM :

Programming & Development : Alexandra Zaïnal
Concept & Development : Baudouin d'Aumeries
Co-Development & Prog : Marc-Olivier Méhu
Technical & hardware support : Manuel Goepfert

Contact : metmap@orbifly.com




SOURCES & CREDITS :

   NOAA       Earth
Advisory